createdAt,value
2017-06-19T00:01:59.660Z,69.80
2017-06-19T00:04:27.133Z,69.40
2017-06-19T00:06:55.373Z,69.50
2017-06-19T00:09:22.864Z,69.50
2017-06-19T00:11:51.140Z,69.60
2017-06-19T00:14:19.381Z,70.00
2017-06-19T00:16:46.871Z,70.00
2017-06-19T00:19:15.113Z,70.20
2017-06-19T00:21:42.589Z,70.20
2017-06-19T00:24:10.081Z,69.50
2017-06-19T00:26:37.653Z,69.20
2017-06-19T00:29:05.307Z,68.70
2017-06-19T00:31:32.992Z,69.10
2017-06-19T00:34:00.644Z,68.20
2017-06-19T00:36:28.920Z,67.70
2017-06-19T00:38:56.582Z,67.30
2017-06-19T00:41:24.251Z,66.90
2017-06-19T00:43:51.909Z,66.70
2017-06-19T00:46:19.398Z,66.00
2017-06-19T00:48:46.871Z,67.40
2017-06-19T00:51:15.118Z,70.60
2017-06-19T00:53:42.609Z,70.50
2017-06-19T00:56:11.130Z,70.70
2017-06-19T00:58:38.605Z,70.70
2017-06-19T01:01:06.105Z,70.80
2017-06-19T01:03:34.344Z,71.40
2017-06-19T01:06:01.816Z,71.30
2017-06-19T01:08:29.313Z,72.10
2017-06-19T01:10:56.782Z,73.10
2017-06-19T01:13:24.301Z,72.80
2017-06-19T01:15:52.561Z,73.60
2017-06-19T01:18:20.041Z,73.40
2017-06-19T01:20:48.282Z,73.80
2017-06-19T01:23:15.774Z,73.80
2017-06-19T01:25:44.013Z,74.80
2017-06-19T01:28:11.482Z,74.80
2017-06-19T01:30:38.972Z,74.70
2017-06-19T01:33:06.441Z,74.60
2017-06-19T01:35:33.913Z,74.70
2017-06-19T01:38:01.429Z,73.80
2017-06-19T01:40:29.673Z,74.90
2017-06-19T01:42:57.145Z,75.50
2017-06-19T01:45:24.637Z,75.50
2017-06-19T01:47:52.106Z,75.20
2017-06-19T01:50:19.577Z,75.60
2017-06-19T01:52:47.069Z,75.10
2017-06-19T01:55:14.542Z,74.80
2017-06-19T01:57:42.777Z,74.90
2017-06-19T02:00:10.281Z,74.30
2017-06-19T02:02:38.524Z,75.10
2017-06-19T02:05:05.993Z,75.10
2017-06-19T02:07:33.489Z,75.90
2017-06-19T02:10:00.965Z,76.80
2017-06-19T02:12:28.437Z,76.40
2017-06-19T02:14:55.930Z,76.20
2017-06-19T02:17:24.172Z,75.40
2017-06-19T02:19:51.646Z,75.10
2017-06-19T02:22:19.138Z,75.40
2017-06-19T02:24:46.609Z,76.60
2017-06-19T02:27:14.137Z,76.80
2017-06-19T02:29:42.393Z,77.90
2017-06-19T02:32:09.881Z,77.60
2017-06-19T02:34:38.358Z,77.20
2017-06-19T02:37:06.624Z,76.40
2017-06-19T02:39:34.870Z,76.20
2017-06-19T02:42:02.340Z,76.10
2017-06-19T02:44:29.838Z,75.80
2017-06-19T02:46:57.314Z,75.60
2017-06-19T02:49:24.785Z,75.80
2017-06-19T02:51:52.286Z,76.80
2017-06-19T02:54:20.657Z,77.40
2017-06-19T02:56:48.134Z,76.70
2017-06-19T02:59:16.389Z,76.50
2017-06-19T03:01:43.861Z,76.40
2017-06-19T03:04:12.101Z,76.80
2017-06-19T03:06:39.594Z,76.80
2017-06-19T03:09:07.838Z,77.40
2017-06-19T03:11:35.312Z,77.40
2017-06-19T03:14:02.811Z,78.30
2017-06-19T03:16:30.294Z,78.30
2017-06-19T03:18:57.766Z,78.50
2017-06-19T03:21:25.253Z,78.20
2017-06-19T03:23:53.489Z,77.70
2017-06-19T03:26:21.182Z,77.60
2017-06-19T03:28:49.440Z,77.90
2017-06-19T03:31:16.909Z,77.90
2017-06-19T03:33:44.386Z,78.30
2017-06-19T03:36:12.645Z,77.90
2017-06-19T03:38:40.890Z,78.60
2017-06-19T03:41:08.373Z,78.60
2017-06-19T03:43:36.638Z,79.20
2017-06-19T03:46:04.109Z,78.30
2017-06-19T03:48:32.346Z,78.00
2017-06-19T03:50:59.869Z,77.90
2017-06-19T03:53:27.345Z,77.70
2017-06-19T03:55:55.050Z,78.00
2017-06-19T03:58:22.549Z,78.10
2017-06-19T04:00:50.022Z,78.10
2017-06-19T04:03:17.505Z,78.00
2017-06-19T04:05:45.451Z,77.70
2017-06-19T04:08:12.966Z,77.90
2017-06-19T04:10:41.209Z,77.60
2017-06-19T04:13:08.705Z,77.50
2017-06-19T04:15:36.945Z,77.50
2017-06-19T04:18:05.206Z,77.70
2017-06-19T04:20:32.697Z,77.60
2017-06-19T04:23:00.934Z,76.70
2017-06-19T04:25:28.405Z,77.20
2017-06-19T04:27:56.297Z,76.60
2017-06-19T04:30:24.532Z,77.00
2017-06-19T04:32:52.005Z,77.00
2017-06-19T04:35:19.497Z,77.70
2017-06-19T04:37:47.739Z,77.90
2017-06-19T04:40:15.205Z,77.90
2017-06-19T04:42:42.693Z,77.90
2017-06-19T04:45:10.165Z,77.60
2017-06-19T04:47:37.638Z,77.30
2017-06-19T04:50:05.130Z,77.70
2017-06-19T04:52:32.610Z,77.70
2017-06-19T04:55:00.849Z,78.60
2017-06-19T04:57:28.342Z,78.50
2017-06-19T04:59:56.585Z,78.20
2017-06-19T05:02:24.061Z,78.20
2017-06-19T05:04:51.558Z,77.90
2017-06-19T05:07:19.033Z,78.00
2017-06-19T05:09:46.505Z,77.50
2017-06-19T05:12:14.005Z,71.40
2017-06-19T05:14:42.245Z,62.90
2017-06-19T05:17:09.722Z,62.70
2017-06-19T05:19:37.537Z,55.80
2017-06-19T05:22:05.053Z,50.80
2017-06-19T05:24:33.294Z,42.90
2017-06-19T05:27:00.786Z,42.80
2017-06-19T05:29:29.030Z,44.60
2017-06-19T05:31:56.505Z,44.70
2017-06-19T05:34:23.997Z,44.80
2017-06-19T05:36:51.469Z,42.90
2017-06-19T05:39:18.945Z,40.90
2017-06-19T05:41:46.437Z,41.60
2017-06-19T05:44:13.930Z,38.50
2017-06-19T05:46:41.565Z,38.50
2017-06-19T05:49:09.825Z,37.80
2017-06-19T05:51:37.293Z,37.80
2017-06-19T05:54:05.528Z,36.30
2017-06-19T05:56:33.017Z,36.20
2017-06-19T05:59:00.875Z,36.40
2017-06-19T06:01:29.362Z,36.90
2017-06-19T06:03:58.569Z,36.30
2017-06-19T06:06:27.401Z,36.80
2017-06-19T06:08:56.092Z,35.90
2017-06-19T06:11:24.361Z,35.80
2017-06-19T06:13:52.229Z,36.70
2017-06-19T06:16:20.718Z,36.30
2017-06-19T06:18:49.495Z,36.60
2017-06-19T06:21:17.464Z,36.10
2017-06-19T06:23:45.331Z,37.70
2017-06-19T06:26:14.234Z,36.50
2017-06-19T06:28:42.764Z,36.00
2017-06-19T06:31:10.276Z,35.20
2017-06-19T06:33:38.228Z,35.10
2017-06-19T06:36:06.530Z,36.60
2017-06-19T06:38:34.596Z,35.10
2017-06-19T06:41:02.772Z,36.10
2017-06-19T06:43:31.609Z,36.70
2017-06-19T06:45:59.545Z,37.00
2017-06-19T06:48:27.906Z,36.70
2017-06-19T06:50:56.568Z,37.70
2017-06-19T06:53:24.944Z,37.70
2017-06-19T06:55:53.323Z,36.30
2017-06-19T06:58:21.291Z,37.50
2017-06-19T07:00:50.343Z,38.50
2017-06-19T07:03:19.256Z,38.00
2017-06-19T07:05:46.879Z,37.90
2017-06-19T07:08:15.521Z,35.50
2017-06-19T07:10:43.695Z,35.50
2017-06-19T07:13:11.644Z,36.10
2017-06-19T07:15:39.735Z,36.10
2017-06-19T07:18:07.805Z,37.30
2017-06-19T07:20:36.286Z,37.70
2017-06-19T07:23:04.356Z,37.60
2017-06-19T07:25:32.223Z,37.30
2017-06-19T07:28:00.090Z,38.10
2017-06-19T07:30:27.732Z,38.80
2017-06-19T07:32:55.855Z,38.50
2017-06-19T07:35:24.097Z,38.00
2017-06-19T07:37:52.168Z,37.20
2017-06-19T07:40:20.955Z,36.60
2017-06-19T07:42:49.129Z,36.50
2017-06-19T07:45:16.893Z,36.90
2017-06-19T07:47:44.665Z,35.80
2017-06-19T07:50:12.626Z,36.50
2017-06-19T07:52:40.900Z,36.00
2017-06-19T07:55:09.176Z,35.20
2017-06-19T07:57:39.091Z,35.10
2017-06-19T08:00:07.800Z,34.70
2017-06-19T08:02:36.563Z,34.60
2017-06-19T08:05:04.939Z,35.30
2017-06-19T08:07:32.910Z,35.90
2017-06-19T08:10:01.583Z,34.50
2017-06-19T08:12:29.360Z,34.60
2017-06-19T08:14:57.226Z,35.20
2017-06-19T08:17:26.734Z,34.00
2017-06-19T08:19:55.006Z,33.70
2017-06-19T08:22:24.261Z,33.20
2017-06-19T08:24:52.580Z,33.30
2017-06-19T08:27:21.267Z,31.20
2017-06-19T08:29:49.542Z,31.20
2017-06-19T08:32:17.613Z,30.60
2017-06-19T08:34:45.786Z,31.60
2017-06-19T08:37:13.755Z,29.80
2017-06-19T08:39:41.928Z,30.40
2017-06-19T08:42:10.567Z,29.80
2017-06-19T08:44:38.868Z,30.20
2017-06-19T08:47:06.858Z,30.80
2017-06-19T08:49:34.826Z,30.60
2017-06-19T08:52:02.722Z,29.10
2017-06-19T08:54:31.704Z,31.40
2017-06-19T08:56:59.653Z,30.70
2017-06-19T08:59:28.048Z,30.00
2017-06-19T09:01:56.639Z,29.50
2017-06-19T09:04:24.583Z,29.50
2017-06-19T09:06:52.448Z,30.00
2017-06-19T09:09:20.622Z,31.10
2017-06-19T09:11:48.615Z,30.00
2017-06-19T09:14:16.211Z,31.90
2017-06-19T09:16:47.091Z,30.20
2017-06-19T09:19:15.055Z,30.20
2017-06-19T09:21:43.748Z,28.60
2017-06-19T09:24:11.608Z,28.90
2017-06-19T09:26:40.779Z,28.70
2017-06-19T09:29:08.773Z,28.70
2017-06-19T09:31:36.501Z,28.30
2017-06-19T09:34:04.304Z,30.30
2017-06-19T09:36:32.836Z,29.10
2017-06-19T09:39:01.467Z,28.40
2017-06-19T09:41:29.335Z,28.40
2017-06-19T09:43:57.078Z,28.30
2017-06-19T09:46:24.863Z,29.10
2017-06-19T09:48:52.649Z,28.00
2017-06-19T09:51:20.505Z,28.50
2017-06-19T09:53:48.459Z,27.50
2017-06-19T09:56:16.323Z,27.70
2017-06-19T09:58:43.925Z,28.80
2017-06-19T10:01:12.058Z,28.40
2017-06-19T10:03:39.924Z,28.80
2017-06-19T10:06:07.557Z,29.60
2017-06-19T10:08:35.347Z,28.50
2017-06-19T10:11:03.138Z,28.60
2017-06-19T10:13:31.080Z,28.00
2017-06-19T10:15:59.252Z,28.70
2017-06-19T10:18:27.326Z,28.30
2017-06-19T10:20:55.231Z,27.90
2017-06-19T10:23:24.694Z,27.80
2017-06-19T10:25:53.686Z,27.70
2017-06-19T10:28:21.760Z,28.00
2017-06-19T10:30:50.377Z,28.00
2017-06-19T10:33:18.327Z,26.70
2017-06-19T10:35:46.379Z,26.10
2017-06-19T10:38:14.654Z,25.70
2017-06-19T10:40:43.254Z,25.80
2017-06-19T10:43:11.104Z,25.80
2017-06-19T10:45:38.805Z,27.10
2017-06-19T10:48:06.633Z,26.70
2017-06-19T10:50:35.368Z,27.10
2017-06-19T10:53:03.389Z,26.50
2017-06-19T10:55:31.436Z,26.00
2017-06-19T10:57:59.605Z,26.40
2017-06-19T11:00:28.475Z,25.90
2017-06-19T11:02:56.734Z,25.70
2017-06-19T11:05:25.484Z,26.90
2017-06-19T11:07:53.656Z,26.80
2017-06-19T11:10:21.631Z,27.50
2017-06-19T11:12:49.595Z,26.70
2017-06-19T11:15:17.665Z,25.70
2017-06-19T11:17:45.837Z,25.70
2017-06-19T11:20:13.824Z,25.80
2017-06-19T11:22:42.901Z,26.40
2017-06-19T11:25:12.432Z,27.30
2017-06-19T11:27:41.295Z,26.10
2017-06-19T11:30:10.185Z,25.20
2017-06-19T11:32:37.949Z,25.20
2017-06-19T11:35:05.917Z,25.20
2017-06-19T11:37:33.849Z,25.20
2017-06-19T11:40:02.161Z,25.00
2017-06-19T11:42:30.052Z,26.30
2017-06-19T11:44:58.121Z,25.80
2017-06-19T11:47:26.070Z,26.20
2017-06-19T11:49:54.138Z,24.70
2017-06-19T11:52:22.004Z,26.90
2017-06-19T11:54:51.221Z,26.10
2017-06-19T11:57:19.145Z,26.10
2017-06-19T11:59:47.246Z,26.20
2017-06-19T12:02:16.131Z,25.90
2017-06-19T12:04:44.099Z,25.60
2017-06-19T12:07:13.193Z,24.40
2017-06-19T12:09:41.237Z,24.30
2017-06-19T12:12:09.033Z,25.00
2017-06-19T12:14:36.958Z,24.40
2017-06-19T12:17:04.760Z,25.00
2017-06-19T12:19:32.524Z,25.70
2017-06-19T12:22:00.641Z,25.50
2017-06-19T12:24:28.490Z,25.00
2017-06-19T12:26:57.574Z,25.90
2017-06-19T12:29:25.937Z,25.90
2017-06-19T12:31:53.902Z,25.50
2017-06-19T12:34:22.178Z,24.90
2017-06-19T12:36:49.942Z,24.00
2017-06-19T12:39:18.057Z,23.80
2017-06-19T12:41:47.008Z,24.90
2017-06-19T12:44:15.923Z,24.80
2017-06-19T12:46:44.580Z,25.30
2017-06-19T12:49:12.667Z,24.70
2017-06-19T12:51:41.831Z,25.70
2017-06-19T12:54:10.325Z,25.70
2017-06-19T12:56:38.124Z,25.20
2017-06-19T12:59:06.983Z,25.10
2017-06-19T13:01:35.054Z,25.50
2017-06-19T13:04:03.945Z,25.20
2017-06-19T13:06:32.119Z,26.60
2017-06-19T13:09:02.340Z,26.80
2017-06-19T13:11:30.131Z,26.80
2017-06-19T13:13:59.656Z,28.00
2017-06-19T13:16:28.032Z,29.30
2017-06-19T13:18:56.769Z,30.00
2017-06-19T13:21:24.933Z,30.00
2017-06-19T13:23:52.812Z,28.50
2017-06-19T13:26:20.783Z,28.50
2017-06-19T13:28:48.955Z,28.50
2017-06-19T13:31:18.166Z,28.90
2017-06-19T13:33:46.325Z,28.80
2017-06-19T13:36:14.702Z,30.00
2017-06-19T13:38:42.671Z,30.30
2017-06-19T13:41:11.465Z,29.40
2017-06-19T13:43:40.153Z,29.60
2017-06-19T13:46:08.111Z,29.20
2017-06-19T13:48:36.370Z,29.90
2017-06-19T13:51:04.788Z,28.90
2017-06-19T13:53:32.984Z,29.60
2017-06-19T13:56:01.727Z,29.70
2017-06-19T13:58:29.798Z,29.70
2017-06-19T14:00:57.453Z,29.60
2017-06-19T14:03:25.221Z,31.30
2017-06-19T14:05:53.191Z,30.00
2017-06-19T14:08:21.058Z,29.00
2017-06-19T14:10:49.640Z,29.60
2017-06-19T14:13:18.837Z,29.30
2017-06-19T14:15:46.395Z,29.30
2017-06-19T14:18:14.361Z,27.70
2017-06-19T14:20:43.299Z,29.00
2017-06-19T14:23:11.940Z,29.30
2017-06-19T14:25:40.215Z,29.30
2017-06-19T14:28:09.212Z,29.90
2017-06-19T14:30:37.073Z,29.90
2017-06-19T14:33:05.656Z,29.80
2017-06-19T14:35:34.240Z,30.00
2017-06-19T14:38:02.315Z,29.90
2017-06-19T14:40:30.138Z,30.20
2017-06-19T14:42:59.070Z,28.30
2017-06-19T14:45:27.036Z,28.20
2017-06-19T14:47:55.006Z,28.20
2017-06-19T14:50:23.382Z,27.50
2017-06-19T14:52:51.657Z,28.50
2017-06-19T14:55:20.489Z,29.50
2017-06-19T14:57:48.873Z,29.10
2017-06-19T15:00:17.407Z,29.90
2017-06-19T15:02:46.227Z,29.90
2017-06-19T15:05:14.290Z,29.80
2017-06-19T15:07:42.440Z,30.80
2017-06-19T15:10:11.023Z,30.90
2017-06-19T15:12:39.398Z,31.00
2017-06-19T15:15:07.470Z,30.10
2017-06-19T15:17:35.542Z,31.70
2017-06-19T15:20:03.509Z,31.00
2017-06-19T15:22:37.204Z,31.60
2017-06-19T15:25:05.422Z,30.30
2017-06-19T15:27:33.250Z,29.50
2017-06-19T15:30:02.036Z,29.90
2017-06-19T15:32:30.482Z,30.20
2017-06-19T15:34:58.385Z,30.40
2017-06-19T15:37:27.055Z,30.80
2017-06-19T15:39:55.663Z,30.30
2017-06-19T15:42:24.534Z,31.90
2017-06-19T15:44:52.997Z,31.80
2017-06-19T15:47:22.706Z,30.30
2017-06-19T15:49:50.456Z,30.70
2017-06-19T15:52:18.670Z,31.40
2017-06-19T15:54:46.357Z,30.60
2017-06-19T15:57:14.094Z,31.30
2017-06-19T15:59:42.575Z,31.00
2017-06-19T16:02:11.105Z,30.00
2017-06-19T16:04:39.077Z,30.40
2017-06-19T16:07:06.992Z,31.30
2017-06-19T16:09:35.248Z,30.70
2017-06-19T16:12:03.074Z,31.40
2017-06-19T16:14:31.614Z,31.30
2017-06-19T16:16:59.927Z,31.20
2017-06-19T16:19:28.580Z,30.70
2017-06-19T16:21:56.242Z,30.00
2017-06-19T16:24:24.408Z,30.30
2017-06-19T16:26:52.275Z,29.90
2017-06-19T16:29:20.552Z,30.10
2017-06-19T16:31:48.419Z,30.00
2017-06-19T16:34:16.180Z,30.50
2017-06-19T16:36:44.865Z,30.40
2017-06-19T16:39:12.731Z,30.00
2017-06-19T16:41:40.803Z,30.00
2017-06-19T16:44:08.771Z,30.30
2017-06-19T16:46:36.740Z,31.00
2017-06-19T16:49:05.117Z,31.70
2017-06-19T16:51:33.234Z,32.20
2017-06-19T16:54:02.069Z,31.60
2017-06-19T16:56:31.278Z,32.20
2017-06-19T16:58:59.244Z,32.40
2017-06-19T17:01:27.130Z,32.80
2017-06-19T17:03:55.014Z,31.60
2017-06-19T17:06:23.733Z,32.30
2017-06-19T17:08:51.526Z,32.30
2017-06-19T17:11:19.597Z,32.90
2017-06-19T17:13:47.458Z,31.30
2017-06-19T17:16:15.432Z,31.10
2017-06-19T17:18:43.299Z,31.00
2017-06-19T17:21:11.676Z,32.70
2017-06-19T17:23:39.590Z,33.70
2017-06-19T17:26:07.411Z,34.20
2017-06-19T17:28:35.612Z,31.70
2017-06-19T17:31:03.755Z,32.60
2017-06-19T17:33:31.725Z,34.10
2017-06-19T17:36:00.000Z,33.50
2017-06-19T17:38:28.379Z,33.70
2017-06-19T17:40:56.076Z,35.00
2017-06-19T17:43:23.635Z,35.00
2017-06-19T17:45:52.725Z,34.50
2017-06-19T17:48:20.865Z,33.90
2017-06-19T17:50:49.635Z,35.80
2017-06-19T17:53:18.134Z,35.50
2017-06-19T17:55:46.101Z,35.80
2017-06-19T17:58:13.968Z,36.00
2017-06-19T18:00:42.553Z,36.50
2017-06-19T18:03:10.225Z,36.60
2017-06-19T18:05:38.181Z,36.20
2017-06-19T18:08:06.456Z,36.70
2017-06-19T18:10:34.630Z,35.90
2017-06-19T18:13:02.904Z,36.10
2017-06-19T18:15:31.695Z,37.70
2017-06-19T18:18:00.172Z,38.50
2017-06-19T18:20:28.010Z,39.00
2017-06-19T18:22:55.906Z,40.00
2017-06-19T18:25:24.180Z,40.90
2017-06-19T18:27:52.882Z,41.50
2017-06-19T18:30:21.127Z,41.40
2017-06-19T18:32:49.109Z,42.20
2017-06-19T18:35:17.796Z,42.50
2017-06-19T18:37:45.438Z,42.40
2017-06-19T18:40:14.654Z,42.80
2017-06-19T18:42:43.339Z,42.90
2017-06-19T18:45:11.309Z,43.80
2017-06-19T18:47:39.109Z,43.80
2017-06-19T18:50:07.960Z,44.20
2017-06-19T18:52:35.826Z,43.40
2017-06-19T18:55:03.692Z,43.80
2017-06-19T18:57:31.524Z,44.60
2017-06-19T18:59:59.221Z,44.70
2017-06-19T19:02:27.307Z,45.20
2017-06-19T19:04:55.669Z,45.50
2017-06-19T19:07:23.687Z,46.00
2017-06-19T19:09:52.334Z,46.30
2017-06-19T19:12:20.229Z,46.30
2017-06-19T19:14:49.798Z,46.80
2017-06-19T19:17:17.662Z,46.70
2017-06-19T19:19:45.478Z,47.30
2017-06-19T19:22:14.315Z,45.40
2017-06-19T19:24:42.385Z,45.40
2017-06-19T19:27:10.732Z,45.40
2017-06-19T19:29:38.740Z,46.30
2017-06-19T19:32:06.598Z,47.60
2017-06-19T19:34:34.976Z,48.10
2017-06-19T19:37:03.252Z,48.40
2017-06-19T19:39:30.902Z,50.00
2017-06-19T19:41:58.677Z,50.80
2017-06-19T19:44:27.736Z,51.50
2017-06-19T19:46:55.944Z,51.80
2017-06-19T19:49:23.811Z,52.40
2017-06-19T19:51:51.778Z,52.30
2017-06-19T19:54:19.861Z,52.60
2017-06-19T19:56:49.129Z,53.20
2017-06-19T19:59:16.910Z,53.60
2017-06-19T20:01:44.984Z,53.30
2017-06-19T20:04:14.078Z,53.20
2017-06-19T20:06:41.962Z,53.30
2017-06-19T20:09:10.120Z,54.40
2017-06-19T20:11:37.948Z,55.20
2017-06-19T20:14:05.952Z,55.10
2017-06-19T20:16:33.622Z,56.20
2017-06-19T20:19:01.310Z,56.30
2017-06-19T20:21:29.245Z,56.60
2017-06-19T20:23:57.283Z,56.70
2017-06-19T20:26:25.632Z,56.20
2017-06-19T20:28:54.790Z,55.20
2017-06-19T20:31:22.600Z,55.30
2017-06-19T20:33:51.227Z,56.30
2017-06-19T20:36:19.102Z,55.60
2017-06-19T20:38:46.790Z,56.20
2017-06-19T20:41:14.440Z,55.30
2017-06-19T20:43:43.009Z,54.60
2017-06-19T20:46:10.876Z,54.10
2017-06-19T20:48:39.252Z,54.10
2017-06-19T20:51:07.322Z,56.10
2017-06-19T20:53:35.290Z,54.10
2017-06-19T20:56:03.624Z,55.60
2017-06-19T20:58:31.491Z,58.60
2017-06-19T21:00:59.503Z,58.90
2017-06-19T21:03:27.881Z,59.40
2017-06-19T21:05:55.648Z,59.10
2017-06-19T21:08:24.330Z,60.30
2017-06-19T21:10:52.096Z,60.70
2017-06-19T21:13:20.267Z,61.30
2017-06-19T21:15:48.132Z,61.90
2017-06-19T21:18:16.408Z,62.20
2017-06-19T21:20:44.689Z,62.40
2017-06-19T21:23:12.755Z,61.90
2017-06-19T21:25:40.724Z,62.70
2017-06-19T21:28:08.899Z,63.00
2017-06-19T21:30:37.642Z,63.30
2017-06-19T21:33:05.346Z,63.60
2017-06-19T21:35:33.030Z,64.00
2017-06-19T21:38:00.882Z,64.10
2017-06-19T21:40:28.982Z,63.60
2017-06-19T21:42:57.479Z,63.20
2017-06-19T21:45:26.007Z,63.10
2017-06-19T21:47:53.773Z,63.10
2017-06-19T21:50:21.755Z,63.20
2017-06-19T21:52:50.376Z,63.40
2017-06-19T21:55:18.786Z,64.50
2017-06-19T21:57:46.668Z,64.30
2017-06-19T22:00:14.316Z,65.80
2017-06-19T22:02:41.917Z,65.70
2017-06-19T22:05:09.665Z,66.30
2017-06-19T22:07:37.203Z,67.20
2017-06-19T22:10:05.305Z,67.30
2017-06-19T22:12:32.898Z,67.30
2017-06-19T22:15:01.229Z,68.40
2017-06-19T22:17:28.712Z,68.40
2017-06-19T22:19:56.545Z,68.70
2017-06-19T22:22:39.460Z,68.60
2017-06-19T22:25:07.475Z,68.40
2017-06-19T22:27:35.747Z,68.70
2017-06-19T22:30:03.675Z,68.50
2017-06-19T22:32:31.539Z,68.70
2017-06-19T22:34:59.269Z,68.90
2017-06-19T22:37:27.476Z,68.90
2017-06-19T22:39:55.874Z,67.20
2017-06-19T22:42:24.614Z,67.40
2017-06-19T22:44:53.021Z,67.60
2017-06-19T22:47:22.015Z,69.30
2017-06-19T22:49:50.904Z,69.50
2017-06-19T22:52:18.769Z,69.50
2017-06-19T22:54:46.840Z,70.40
2017-06-19T22:57:14.910Z,70.10
2017-06-19T22:59:42.777Z,70.80
2017-06-19T23:02:11.051Z,71.30
2017-06-19T23:04:38.815Z,71.60
2017-06-19T23:07:06.855Z,71.50
2017-06-19T23:09:34.763Z,72.10
2017-06-19T23:12:02.673Z,72.20
2017-06-19T23:14:31.216Z,72.40
2017-06-19T23:16:59.302Z,72.50
2017-06-19T23:19:27.240Z,72.40
2017-06-19T23:21:55.414Z,72.20
2017-06-19T23:24:24.016Z,72.60
2017-06-19T23:26:52.478Z,73.00
2017-06-19T23:29:20.241Z,72.90
2017-06-19T23:31:48.210Z,72.70
2017-06-19T23:34:16.478Z,72.30
2017-06-19T23:36:44.586Z,72.50
2017-06-19T23:39:12.357Z,72.60
2017-06-19T23:41:40.084Z,72.50
2017-06-19T23:44:08.141Z,72.40
2017-06-19T23:46:35.975Z,72.80
2017-06-19T23:49:03.888Z,72.60
2017-06-19T23:51:31.758Z,73.10
2017-06-19T23:53:59.516Z,72.90
2017-06-19T23:56:27.146Z,73.40
2017-06-19T23:58:54.839Z,73.70
